Time;durP1;ratioP1;P1;durP2;ratioP2;P2;SDS_P1;SDS_P2;PMS_P1;PMS_P2;Temp;Humidity;BMP_temperature;BMP_pressure;BME280_temperature;BME280_humidity;BME280_pressure;Samples;Min_cycle;Max_cycle;Signal;HPM_P1;HPM_P2
2022/06/21 00:01:25;;;;;;;1.70;1.10;;;;;;;15.19;80.04;97827.30;106528;1281;137589;-88
2022/06/21 00:03:54;;;;;;;0.70;0.50;;;;;;;15.14;80.05;97835.30;106405;1283;22548;-90
2022/06/21 00:06:34;;;;;;;0.40;0.40;;;;;;;15.10;80.02;97835.48;107191;1281;23436;-90
2022/06/21 00:09:13;;;;;;;1.00;0.60;;;;;;;15.07;80.11;97840.64;106166;1282;22564;-89
2022/06/21 00:11:46;;;;;;;0.60;0.50;;;;;;;15.01;79.99;97841.38;106485;1283;22676;-90
2022/06/21 00:14:14;;;;;;;0.70;0.40;;;;;;;14.95;80.22;97848.49;106171;1282;137534;-90
2022/06/21 00:16:41;;;;;;;0.50;0.50;;;;;;;14.89;80.20;97848.66;106321;1281;30543;-91
2022/06/21 00:19:31;;;;;;;1.40;0.60;;;;;;;14.83;79.99;97850.09;106468;1281;137981;-90
2022/06/21 00:21:57;;;;;;;2.20;0.60;;;;;;;14.80;80.02;97852.14;106529;1282;25406;-91
2022/06/21 00:24:29;;;;;;;0.60;0.60;;;;;;;14.76;80.08;97859.02;106272;1282;22675;-88
2022/06/21 00:26:58;;;;;;;0.50;0.40;;;;;;;14.73;79.33;97861.19;105928;1283;137706;-87
2022/06/21 00:29:24;;;;;;;1.30;0.60;;;;;;;14.69;79.02;97863.52;105793;1282;25589;-86
2022/06/21 00:31:53;;;;;;;2.60;1.20;;;;;;;14.62;78.82;97865.66;105512;1284;137565;-86
2022/06/21 00:34:21;;;;;;;1.90;0.80;;;;;;;14.54;78.81;97866.02;106258;1281;23477;-88
2022/06/21 00:36:50;;;;;;;0.70;0.70;;;;;;;14.48;79.25;97869.52;106121;1281;137738;-87
2022/06/21 00:39:21;;;;;;;0.40;0.40;;;;;;;14.43;78.73;97870.55;106173;1282;22583;-86
2022/06/21 00:42:04;;;;;;;2.00;0.80;;;;;;;14.40;78.56;97874.11;106429;1281;24059;-87
2022/06/21 00:44:52;;;;;;;2.60;0.60;;;;;;;14.37;78.37;97874.20;105772;1283;137812;-88
2022/06/21 00:47:41;;;;;;;1.90;0.70;;;;;;;14.32;78.03;97874.34;106436;1281;31568;-86
2022/06/21 00:50:27;;;;;;;2.40;0.90;;;;;;;14.25;77.01;97866.98;105820;1284;137660;-89
2022/06/21 00:53:05;;;;;;;2.60;0.80;;;;;;;14.18;77.09;97863.96;106314;1281;22547;-87
2022/06/21 00:55:50;;;;;;;1.00;0.90;;;;;;;14.11;76.42;97872.00;106139;1283;137321;-89
2022/06/21 00:58:25;;;;;;;2.50;1.00;;;;;;;14.02;75.85;97870.13;105881;1284;25365;-89
2022/06/21 01:01:01;;;;;;;0.80;0.80;;;;;;;13.94;76.23;97872.64;105862;1281;137743;-88
2022/06/21 01:03:46;;;;;;;1.90;1.20;;;;;;;13.88;75.94;97875.83;105710;1282;22591;-83
2022/06/21 01:06:17;;;;;;;1.40;1.30;;;;;;;13.83;75.21;97874.05;106123;1281;24389;-85
2022/06/21 01:09:03;;;;;;;1.50;1.40;;;;;;;13.76;75.10;97874.69;106037;1281;139090;-89
2022/06/21 01:11:38;;;;;;;1.30;1.20;;;;;;;13.69;75.49;97868.48;105911;1282;24296;-85
2022/06/21 01:14:05;;;;;;;1.20;1.10;;;;;;;13.65;75.57;97870.13;105769;1284;138370;-90
2022/06/21 01:16:35;;;;;;;1.60;1.30;;;;;;;13.62;75.90;97869.49;106123;1281;22720;-87
2022/06/21 01:19:26;;;;;;;2.00;1.80;;;;;;;13.56;76.28;97866.99;105646;1284;137376;-88
2022/06/21 01:22:00;;;;;;;2.30;1.90;;;;;;;13.50;76.45;97863.56;106199;1281;25466;-89
2022/06/21 01:24:57;;;;;;;2.00;1.80;;;;;;;13.46;76.81;97860.79;106097;1283;22629;-91
2022/06/21 01:27:24;;;;;;;6.10;2.20;;;;;;;13.44;77.02;97853.09;105838;1281;22588;-87
2022/06/21 01:29:58;;;;;;;2.10;1.90;;;;;;;13.39;77.02;97861.30;105748;1284;22573;-85
2022/06/21 01:32:24;;;;;;;2.30;1.70;;;;;;;13.33;77.08;97857.48;105725;1284;138033;-87
2022/06/21 01:34:54;;;;;;;2.10;1.90;;;;;;;13.33;77.20;97857.83;105733;1284;22572;-87
2022/06/21 01:37:27;;;;;;;1.90;1.80;;;;;;;13.30;77.61;97856.87;105755;1281;137599;-89
2022/06/21 01:40:02;;;;;;;2.30;2.00;;;;;;;13.29;77.59;97861.46;106113;1281;22698;-87
2022/06/21 01:42:37;;;;;;;1.60;1.50;;;;;;;13.28;77.50;97858.73;106249;1282;23174;-86
2022/06/21 01:45:10;;;;;;;3.60;2.00;;;;;;;13.26;78.14;97856.72;105684;1282;24406;-90
2022/06/21 01:47:56;;;;;;;2.40;2.10;;;;;;;13.24;78.44;97857.55;105831;1284;22585;-85
2022/06/21 01:50:25;;;;;;;2.40;1.80;;;;;;;13.24;78.56;97862.23;105962;1284;137127;-90
2022/06/21 01:52:56;;;;;;;2.00;1.80;;;;;;;13.23;78.67;97861.48;106229;1281;25395;-92
2022/06/21 01:55:29;;;;;;;2.90;1.90;;;;;;;13.23;78.61;97860.05;106199;1283;137844;-91
2022/06/21 01:57:58;;;;;;;;;;;;;;;13.31;78.72;97864.88;106423;1282;22546;-91
2022/06/21 02:00:26;;;;;;;3.30;1.90;;;;;;;13.33;78.44;97863.40;106323;1284;22497;-91
2022/06/21 02:03:06;;;;;;;2.10;1.70;;;;;;;13.34;78.40;97867.45;105926;1284;137014;-90
2022/06/21 02:05:41;;;;;;;2.40;1.60;;;;;;;13.34;78.39;97871.38;105923;1284;24727;-85
2022/06/21 02:08:15;;;;;;;2.40;1.60;;;;;;;13.34;78.10;97868.65;105916;1283;137915;-90
2022/06/21 02:10:56;;;;;;;2.20;1.80;;;;;;;13.34;77.98;97866.02;106210;1281;22580;-91
2022/06/21 02:13:45;;;;;;;2.10;1.90;;;;;;;13.33;77.73;97865.86;106380;1281;137788;-91
2022/06/21 02:16:40;;;;;;;3.50;1.80;;;;;;;13.32;77.83;97864.77;105779;1283;22612;-91
2022/06/21 02:19:32;;;;;;;2.10;1.50;;;;;;;13.25;77.98;97867.16;106129;1284;138134;-87
2022/06/21 02:22:10;;;;;;;2.30;2.10;;;;;;;13.22;77.48;97874.06;105880;1284;23994;-87
2022/06/21 02:24:37;;;;;;;2.20;2.00;;;;;;;13.18;77.50;97879.27;106011;1284;137387;-85
2022/06/21 02:27:05;;;;;;;1.70;1.60;;;;;;;13.12;76.92;97880.04;106089;1281;24237;-87
2022/06/21 02:29:34;;;;;;;2.00;1.90;;;;;;;13.06;76.88;97884.31;105817;1284;22721;-90
2022/06/21 02:32:10;;;;;;;2.00;1.80;;;;;;;13.03;76.81;97884.76;106083;1281;137678;-91
2022/06/21 02:34:40;;;;;;;2.70;1.80;;;;;;;13.01;76.45;97889.95;105999;1281;22839;-88
2022/06/21 02:37:15;;;;;;;1.80;1.60;;;;;;;12.94;76.55;97880.49;105754;1284;137686;-91
2022/06/21 02:40:04;;;;;;;3.00;1.60;;;;;;;12.94;76.78;97881.48;106278;1281;30371;-92
2022/06/21 02:42:34;;;;;;;1.70;1.60;;;;;;;12.98;76.76;97884.75;106883;1281;25382;-91
2022/06/21 02:45:20;;;;;;;2.20;2.00;;;;;;;13.01;76.81;97888.91;106101;1283;24304;-89
2022/06/21 02:48:08;;;;;;;3.30;1.90;;;;;;;13.03;76.63;97889.67;106332;1284;22523;-93
2022/06/21 02:50:56;;;;;;;2.00;1.70;;;;;;;13.04;76.75;97889.93;106220;1284;137977;-88
2022/06/21 02:53:38;;;;;;;1.60;1.40;;;;;;;13.06;76.47;97889.29;106357;1284;22547;-89
2022/06/21 02:56:33;;;;;;;2.80;2.10;;;;;;;13.07;76.01;97891.52;106173;1283;137607;-93
2022/06/21 02:59:10;;;;;;;3.30;2.10;;;;;;;13.05;76.44;97892.45;106897;1281;22801;-92
2022/06/21 03:01:53;;;;;;;3.30;2.20;;;;;;;13.04;76.56;97898.19;105908;1284;137348;-87
2022/06/21 03:04:48;;;;;;;3.90;2.20;;;;;;;13.01;76.44;97895.13;106388;1284;23392;-92
2022/06/21 03:07:39;;;;;;;2.40;2.20;;;;;;;12.98;76.51;97896.18;106273;1283;138106;-86
2022/06/21 03:10:16;;;;;;;4.60;3.00;;;;;;;12.97;76.39;97894.88;106038;1282;22693;-87
2022/06/21 03:12:47;;;;;;;2.80;2.50;;;;;;;12.94;76.13;97899.84;106482;1284;137400;-92
2022/06/21 03:15:26;;;;;;;2.60;2.40;;;;;;;12.95;76.08;97907.73;106729;1284;25228;-90
2022/06/21 03:18:04;;;;;;;3.10;2.50;;;;;;;12.96;76.69;97909.85;106846;1281;22588;-92
2022/06/21 03:20:34;;;;;;;4.30;2.70;;;;;;;12.99;76.34;97916.56;106553;1282;137460;-89
2022/06/21 03:23:05;;;;;;;3.80;3.00;;;;;;;13.02;76.47;97919.08;106690;1284;23395;-88
2022/06/21 03:26:05;;;;;;;3.60;2.60;;;;;;;13.04;76.17;97920.90;106849;1282;137731;-90
2022/06/21 03:28:45;;;;;;;5.30;2.60;;;;;;;13.05;76.39;97926.19;107041;1281;22503;-92
2022/06/21 03:31:22;;;;;;;4.00;3.00;;;;;;;13.10;76.00;97925.98;106378;1283;137784;-90
2022/06/21 03:33:56;;;;;;;4.70;2.90;;;;;;;13.16;76.46;97927.76;106627;1283;22573;-88
2022/06/21 03:36:25;;;;;;;5.30;3.10;;;;;;;13.24;75.91;97930.71;106072;1282;23269;-93
2022/06/21 03:39:08;;;;;;;5.40;3.40;;;;;;;13.27;75.47;97931.42;106156;1282;137051;-89
2022/06/21 03:41:43;;;;;;;3.50;2.80;;;;;;;13.30;75.18;97934.16;106834;1281;30534;-89
2022/06/21 03:44:22;;;;;;;3.50;3.20;;;;;;;13.34;74.75;97934.13;106486;1281;137945;-87
2022/06/21 03:47:05;;;;;;;6.00;4.00;;;;;;;13.37;74.96;97927.33;106165;1284;22657;-94
2022/06/21 03:49:45;;;;;;;5.50;4.70;;;;;;;13.39;74.83;97926.13;106688;1281;137693;-90
2022/06/21 03:55:31;;;;;;;7.20;5.40;;;;;;;13.39;74.77;97930.56;106479;1283;137621;-88
2022/06/21 03:58:07;;;;;;;8.00;4.80;;;;;;;13.41;74.90;97924.48;106564;1283;24032;-89
2022/06/21 04:01:17;;;;;;;;;;;;;;;;;;;;;
2022/06/21 04:04:09;;;;;;;5.00;4.30;;;;;;;13.49;74.29;97917.41;106239;1281;25351;-90
2022/06/21 04:06:56;;;;;;;5.00;4.60;;;;;;;13.47;73.96;97917.84;106837;1282;23838;-94
2022/06/21 04:09:34;;;;;;;5.30;4.80;;;;;;;13.45;74.14;97916.27;106653;1283;23916;-91
2022/06/21 04:12:15;;;;;;;6.30;5.30;;;;;;;13.46;74.44;97920.09;106189;1284;25473;-90
2022/06/21 04:14:58;;;;;;;4.30;3.90;;;;;;;13.47;74.48;97912.65;106950;1281;138433;-88
2022/06/21 04:17:48;;;;;;;8.40;4.60;;;;;;;13.47;74.23;97915.21;106626;1283;22585;-88
2022/06/21 04:20:35;;;;;;;5.70;4.60;;;;;;;13.48;74.40;97910.63;106850;1281;136643;-92
2022/06/21 04:23:40;;;;;;;5.50;4.20;;;;;;;13.55;74.59;97912.19;106176;1282;30121;-88
2022/06/21 04:26:17;;;;;;;5.10;3.90;;;;;;;13.57;74.25;97909.39;106915;1282;137755;-92
2022/06/21 04:29:06;;;;;;;5.80;3.90;;;;;;;13.57;74.47;97909.29;106966;1282;25331;-89
2022/06/21 04:31:49;;;;;;;4.80;3.30;;;;;;;13.55;74.47;97919.57;106043;1282;137424;-88
2022/06/21 04:34:58;;;;;;;4.50;2.90;;;;;;;13.58;74.65;97917.98;106432;1284;23709;-91
2022/06/21 04:37:44;;;;;;;5.40;3.70;;;;;;;13.64;74.70;97913.59;106116;1284;138331;-92
2022/06/21 04:40:52;;;;;;;4.50;3.60;;;;;;;13.72;74.37;97918.70;106664;1284;22573;-94
2022/06/21 04:43:24;;;;;;;4.60;3.60;;;;;;;13.77;73.92;97914.92;106103;1284;138109;-93
2022/06/21 04:46:02;;;;;;;7.00;4.40;;;;;;;13.84;73.52;97913.03;106312;1284;22561;-88
2022/06/21 04:48:54;;;;;;;4.80;3.70;;;;;;;13.91;73.33;97912.50;106593;1286;22566;-92
2022/06/21 04:51:34;;;;;;;5.40;3.10;;;;;;;14.03;73.31;97909.06;105669;1285;23293;-85
2022/06/21 04:54:06;;;;;;;4.80;4.20;;;;;;;14.15;73.28;97905.65;106028;1284;22693;-86
2022/06/21 04:57:22;;;;;;;4.30;3.90;;;;;;;14.29;73.23;97909.08;105582;1285;137492;-87
2022/06/21 04:59:53;;;;;;;5.70;4.10;;;;;;;14.36;72.69;97913.32;106055;1288;23046;-93
2022/06/21 05:02:37;;;;;;;6.40;4.10;;;;;;;14.33;72.63;97913.55;106016;1285;137214;-89
2022/06/21 05:05:10;;;;;;;9.10;3.80;;;;;;;14.32;72.72;97917.45;105709;1284;22698;-90
2022/06/21 05:07:45;;;;;;;6.40;3.30;;;;;;;14.31;72.48;97914.78;105736;1285;138244;-87
2022/06/21 05:10:21;;;;;;;4.90;3.80;;;;;;;14.33;72.41;97918.98;105547;1287;22557;-87
2022/06/21 05:12:51;;;;;;;5.40;4.30;;;;;;;14.37;72.38;97922.08;105669;1286;138553;-87
2022/06/21 05:15:22;;;;;;;4.40;3.90;;;;;;;14.43;72.25;97911.52;105940;1284;22572;-87
2022/06/21 05:18:03;;;;;;;5.60;4.40;;;;;;;14.48;72.11;97916.64;105797;1284;22578;-91
2022/06/21 05:20:37;;;;;;;4.90;3.70;;;;;;;14.48;71.44;97918.33;105729;1286;138109;-89
2022/06/21 05:23:07;;;;;;;6.00;3.50;;;;;;;14.43;71.17;97914.25;106608;1284;24263;-91
2022/06/21 05:25:50;;;;;;;6.00;3.90;;;;;;;14.45;71.52;97918.31;105907;1284;138048;-86
2022/06/21 05:28:42;;;;;;;5.80;4.10;;;;;;;14.52;71.37;97913.05;105715;1285;23192;-86
2022/06/21 05:31:19;;;;;;;4.80;4.00;;;;;;;14.61;71.64;97920.37;105953;1284;137373;-88
2022/06/21 05:33:55;;;;;;;6.60;4.60;;;;;;;14.69;71.76;97925.24;105704;1284;25282;-89
2022/06/21 05:36:56;;;;;;;4.80;3.80;;;;;;;14.74;71.41;97927.40;106139;1284;22687;-89
2022/06/21 05:39:31;;;;;;;5.10;4.00;;;;;;;14.77;70.39;97934.13;105782;1285;22646;-93
2022/06/21 05:42:03;;;;;;;5.30;3.90;;;;;;;14.70;69.76;97928.52;106865;1284;24240;-89
2022/06/21 05:44:48;;;;;;;6.40;3.50;;;;;;;14.66;69.53;97926.98;105840;1286;138721;-87
2022/06/21 05:47:31;;;;;;;6.30;4.00;;;;;;;14.65;69.50;97928.56;106051;1286;22670;-88
2022/06/21 05:49:58;;;;;;;6.70;4.60;;;;;;;14.65;68.85;97927.30;105687;1286;137628;-87
2022/06/21 05:52:32;;;;;;;6.30;4.10;;;;;;;14.65;68.86;97929.60;106266;1285;22628;-90
2022/06/21 05:55:21;;;;;;;5.50;5.00;;;;;;;14.62;68.77;97928.91;106230;1284;137630;-88
2022/06/21 05:57:51;;;;;;;6.60;4.90;;;;;;;14.60;69.08;97930.18;106068;1284;22610;-89
2022/06/21 06:00:25;;;;;;;6.40;4.30;;;;;;;14.58;69.66;97933.20;105726;1287;22593;-84
2022/06/21 06:02:58;;;;;;;5.00;4.00;;;;;;;14.59;69.50;97940.93;106022;1285;138448;-90
2022/06/21 06:05:31;;;;;;;7.30;5.40;;;;;;;14.58;69.30;97942.85;103811;1287;3323211;-88
2022/06/21 06:08:30;;;;;;;6.90;4.20;;;;;;;14.67;69.75;97939.84;106265;1286;138373;-91
2022/06/21 06:11:05;;;;;;;6.00;4.20;;;;;;;14.77;68.03;97941.96;106046;1287;25640;-90
2022/06/21 06:13:43;;;;;;;5.10;4.50;;;;;;;14.83;68.12;97944.33;106085;1284;137305;-88
2022/06/21 06:16:24;;;;;;;5.10;3.60;;;;;;;14.84;66.73;97939.78;106338;1286;22704;-89
2022/06/21 06:19:02;;;;;;;6.90;4.00;;;;;;;14.79;66.57;97942.93;105918;1285;138276;-90
2022/06/21 06:21:44;;;;;;;7.00;3.60;;;;;;;14.82;65.95;97938.41;106097;1285;22602;-88
2022/06/21 06:24:27;;;;;;;4.20;3.70;;;;;;;14.86;65.19;97941.96;106259;1284;25395;-83
2022/06/21 06:27:24;;;;;;;6.40;3.60;;;;;;;14.91;65.36;97942.73;106033;1284;22721;-90
2022/06/21 06:30:00;;;;;;;5.00;3.40;;;;;;;14.96;64.87;97941.66;106358;1287;22721;-92
2022/06/21 06:32:42;;;;;;;6.20;3.40;;;;;;;14.96;63.86;97943.64;106486;1284;137144;-88
2022/06/21 06:35:21;;;;;;;4.70;2.80;;;;;;;14.93;63.00;97940.42;106440;1284;22582;-90
2022/06/21 06:37:49;;;;;;;3.60;3.00;;;;;;;14.85;63.33;97938.39;105930;1287;137628;-94
2022/06/21 06:40:30;;;;;;;9.30;3.00;;;;;;;14.85;63.40;97939.98;106536;1284;25333;-91
2022/06/21 06:43:07;;;;;;;3.40;2.80;;;;;;;14.87;62.64;97939.10;106000;1284;137538;-88
2022/06/21 06:45:37;;;;;;;3.90;2.70;;;;;;;14.87;62.35;97943.69;106123;1286;22690;-85
2022/06/21 06:48:45;;;;;;;5.20;2.40;;;;;;;14.89;62.64;97940.56;105766;1288;22569;-85
2022/06/21 06:51:15;;;;;;;3.30;2.50;;;;;;;14.87;62.53;97938.55;105887;1284;22725;-87
2022/06/21 06:53:51;;;;;;;3.70;2.20;;;;;;;14.83;62.11;97939.02;105554;1284;26615;-83
2022/06/21 06:56:26;;;;;;;4.00;2.20;;;;;;;14.74;62.48;97941.77;106083;1284;137318;-82
2022/06/21 06:59:03;;;;;;;5.70;2.40;;;;;;;14.69;63.00;97942.29;106025;1285;22579;-84
2022/06/21 07:02:10;;;;;;;2.70;2.10;;;;;;;14.67;63.77;97944.22;106403;1284;137794;-87
2022/06/21 07:04:43;;;;;;;4.50;2.40;;;;;;;14.79;63.54;97944.36;106257;1284;22565;-90
2022/06/21 07:07:43;;;;;;;3.80;2.50;;;;;;;14.99;63.40;97947.73;106508;1284;137515;-91
2022/06/21 07:10:19;;;;;;;3.10;2.30;;;;;;;15.18;63.28;97943.56;106288;1284;22578;-82
2022/06/21 07:12:50;;;;;;;4.40;2.20;;;;;;;15.30;61.30;97940.59;106082;1284;137562;-84
2022/06/21 07:15:25;;;;;;;2.60;2.00;;;;;;;15.31;60.64;97933.90;106251;1285;22751;-79
2022/06/21 07:17:57;;;;;;;3.80;1.60;;;;;;;15.24;59.05;97929.69;106471;1284;23572;-82
2022/06/21 07:20:45;;;;;;;6.20;2.20;;;;;;;15.24;58.44;97933.14;106088;1284;139290;-82
2022/06/21 07:23:16;;;;;;;3.30;1.90;;;;;;;15.34;59.21;97923.71;106577;1284;22726;-88
2022/06/21 07:25:45;;;;;;;2.90;1.70;;;;;;;15.57;60.62;97929.58;106719;1283;137056;-80
2022/06/21 07:28:20;;;;;;;4.60;2.20;;;;;;;15.77;59.60;97932.58;106562;1284;22579;-87
2022/06/21 07:30:51;;;;;;;5.70;1.80;;;;;;;15.86;57.69;97933.73;106039;1284;137313;-84
2022/06/21 07:33:50;;;;;;;3.50;1.70;;;;;;;15.99;57.10;97938.19;106579;1284;25393;-87
2022/06/21 07:36:29;;;;;;;1.30;1.20;;;;;;;16.08;56.58;97935.77;106510;1284;25432;-87
2022/06/21 07:39:04;;;;;;;3.50;1.60;;;;;;;16.06;55.63;97939.98;106177;1284;137106;-87
2022/06/21 07:41:37;;;;;;;3.10;1.30;;;;;;;16.05;56.37;97947.08;106776;1284;22566;-85
2022/06/21 07:44:24;;;;;;;6.50;2.00;;;;;;;15.99;55.33;97956.55;106618;1284;138455;-86
2022/06/21 07:46:58;;;;;;;;;;;;;;;15.84;54.69;97955.67;107016;1284;22630;-85
2022/06/21 07:49:47;;;;;;;1.90;1.20;;;;;;;15.80;55.27;97961.55;106257;1284;124604;-87
2022/06/21 07:52:29;;;;;;;2.40;1.50;;;;;;;15.87;55.72;97960.41;105513;1286;25377;-87
2022/06/21 07:55:03;;;;;;;2.10;1.50;;;;;;;16.02;55.43;97953.83;105559;1284;138207;-89
2022/06/21 07:57:35;;;;;;;5.70;2.00;;;;;;;16.22;54.89;97947.41;105895;1285;25459;-88
2022/06/21 08:00:12;;;;;;;2.30;1.40;;;;;;;16.22;54.87;97967.63;105678;1284;25276;-89
2022/06/21 08:08:39;;;;;;;2.70;1.50;;;;;;;15.54;55.89;97971.65;105714;1284;137607;-88
2022/06/21 08:11:39;;;;;;;2.20;1.20;;;;;;;15.43;55.85;97966.77;105918;1285;25640;-90
2022/06/21 08:14:07;;;;;;;1.10;1.10;;;;;;;15.34;56.05;97964.31;105767;1285;137532;-85
2022/06/21 08:16:59;;;;;;;2.00;1.30;;;;;;;15.33;56.14;97971.19;105654;1285;24328;-87
2022/06/21 08:19:42;;;;;;;2.20;1.10;;;;;;;15.37;56.56;97971.97;105982;1285;137561;-85
2022/06/21 08:22:32;;;;;;;3.00;1.20;;;;;;;15.43;55.94;97961.55;105524;1284;24303;-89
2022/06/21 08:25:32;;;;;;;1.30;1.20;;;;;;;15.56;56.29;97962.25;105549;1284;138151;-87
2022/06/21 08:28:31;;;;;;;1.70;1.00;;;;;;;15.87;55.84;97944.05;106132;1284;25375;-89
2022/06/21 08:31:04;;;;;;;1.30;1.10;;;;;;;16.12;55.12;97945.56;105642;1284;137340;-83
2022/06/21 08:34:07;;;;;;;2.90;1.20;;;;;;;16.32;54.22;97948.06;105740;1284;22705;-86
2022/06/21 08:37:27;;;;;;;2.10;0.80;;;;;;;16.58;54.03;97962.10;105813;1285;137409;-86
2022/06/21 08:40:23;;;;;;;2.80;0.90;;;;;;;16.72;53.49;97966.02;105911;1285;22999;-86
2022/06/21 08:43:09;;;;;;;2.00;0.90;;;;;;;16.83;51.66;97965.10;105584;1284;137502;-84
2022/06/21 08:45:54;;;;;;;1.90;0.90;;;;;;;16.61;51.74;97962.55;105793;1285;23088;-90
2022/06/21 08:48:38;;;;;;;3.40;1.10;;;;;;;16.38;52.47;97978.37;105642;1284;24398;-85
2022/06/21 08:51:32;;;;;;;3.60;0.90;;;;;;;16.30;52.30;97984.62;106025;1285;136808;-88
2022/06/21 08:54:16;;;;;;;2.60;0.90;;;;;;;16.25;52.85;97986.98;105859;1285;25371;-85
2022/06/21 08:57:05;;;;;;;1.20;0.90;;;;;;;16.17;52.59;97988.75;105475;1285;137040;-87
2022/06/21 08:59:41;;;;;;;1.40;0.80;;;;;;;16.14;53.06;97991.02;105638;1284;25372;-86
2022/06/21 09:02:30;;;;;;;1.30;1.00;;;;;;;16.16;53.06;97994.91;105890;1285;137793;-88
2022/06/21 09:05:36;;;;;;;2.50;1.00;;;;;;;16.20;53.40;97992.71;105617;1284;25477;-84
2022/06/21 09:08:25;;;;;;;1.20;0.80;;;;;;;16.39;53.08;97991.60;105542;1284;137330;-87
2022/06/21 09:11:06;;;;;;;0.80;0.80;;;;;;;16.50;53.28;97984.64;105728;1284;22693;-87
2022/06/21 09:13:42;;;;;;;1.60;0.70;;;;;;;16.72;52.44;97988.14;106176;1284;137816;-86
2022/06/21 09:16:12;;;;;;;1.60;0.90;;;;;;;16.93;51.98;97989.95;105513;1284;25557;-87
2022/06/21 09:18:38;;;;;;;1.20;1.00;;;;;;;16.92;51.90;97993.98;105766;1284;24289;-86
2022/06/21 09:21:12;;;;;;;1.30;0.90;;;;;;;16.85;51.53;97983.07;105897;1284;137246;-86
2022/06/21 09:23:58;;;;;;;3.40;0.90;;;;;;;16.90;52.39;97983.55;105597;1285;23021;-90
2022/06/21 09:26:50;;;;;;;5.00;1.10;;;;;;;16.99;52.39;97983.69;105872;1285;137399;-76
2022/06/21 09:29:50;;;;;;;1.50;0.80;;;;;;;17.01;51.87;97978.48;106346;1284;24400;-83
2022/06/21 09:33:50;;;;;;;1.80;1.00;;;;;;;17.12;51.94;97975.08;104095;1303;577068;-81
2022/06/21 09:36:33;;;;;;;1.00;0.90;;;;;;;17.03;50.78;97971.59;106025;1286;31756;-86
2022/06/21 09:39:20;;;;;;;2.60;1.00;;;;;;;16.94;51.19;97973.94;105393;1287;136660;-85
2022/06/21 09:42:01;;;;;;;1.90;1.00;;;;;;;16.83;51.17;97976.88;106367;1285;22563;-86
2022/06/21 09:44:49;;;;;;;1.30;0.90;;;;;;;16.72;51.16;97976.19;105439;1286;136518;-82
2022/06/21 09:47:22;;;;;;;;;;;;;;;16.60;51.72;97980.33;105125;1283;834743;-80
2022/06/21 09:49:59;;;;;;;1.50;0.90;;;;;;;16.44;52.58;97982.83;105454;1286;123801;-91
2022/06/21 09:52:37;;;;;;;3.50;1.10;;;;;;;16.40;53.48;97983.63;105564;1283;23880;-91
2022/06/21 09:55:21;;;;;;;3.20;1.00;;;;;;;16.35;53.02;97988.14;106140;1283;136693;-91
2022/06/21 09:58:18;;;;;;;2.20;1.00;;;;;;;16.34;53.35;97989.19;106281;1277;24937;-83
2022/06/21 10:01:19;;;;;;;4.30;1.40;;;;;;;16.52;53.64;97978.77;106779;1274;25390;-88
2022/06/21 10:03:55;;;;;;;2.40;1.60;;;;;;;16.76;53.90;97978.85;106574;1276;22539;-88
2022/06/21 10:06:41;;;;;;;4.50;1.50;;;;;;;17.00;53.88;97974.45;106811;1277;22566;-91
2022/06/21 10:09:21;;;;;;;1.60;1.20;;;;;;;17.03;52.38;97969.33;106412;1277;136996;-89
2022/06/21 10:12:14;;;;;;;2.00;1.10;;;;;;;17.01;52.42;97969.64;106797;1277;22675;-90
2022/06/21 10:14:57;;;;;;;2.70;1.10;;;;;;;16.94;51.92;97982.17;106654;1276;136810;-89
2022/06/21 10:17:36;;;;;;;4.70;1.40;;;;;;;16.91;51.65;97981.89;106929;1274;22580;-91
2022/06/21 10:20:35;;;;;;;4.70;1.70;;;;;;;16.89;51.55;97977.13;106731;1276;137225;-90
2022/06/21 10:23:24;;;;;;;3.40;1.60;;;;;;;16.90;51.77;97973.05;106907;1277;22566;-88
2022/06/21 10:26:18;;;;;;;2.70;1.30;;;;;;;17.30;52.82;97972.18;106808;1276;136755;-92
2022/06/21 10:29:22;;;;;;;1.60;1.10;;;;;;;17.55;50.36;97971.20;107243;1277;24227;-89
2022/06/21 10:31:58;;;;;;;1.70;1.20;;;;;;;17.57;50.02;97968.59;107107;1275;137018;-90
2022/06/21 10:34:31;;;;;;;1.00;0.80;;;;;;;17.47;50.25;97968.87;107343;1274;22532;-88
2022/06/21 10:37:17;;;;;;;1.10;0.90;;;;;;;17.45;49.75;97974.36;107642;1274;137537;-89
2022/06/21 10:40:06;;;;;;;2.50;0.90;;;;;;;17.48;49.30;97975.30;107454;1274;22860;-90
2022/06/21 10:43:02;;;;;;;2.40;0.80;;;;;;;17.39;49.18;97979.86;107579;1274;22722;-92
2022/06/21 10:45:45;;;;;;;0.90;0.90;;;;;;;17.27;50.37;97989.20;107460;1275;23358;-92
2022/06/21 10:48:47;;;;;;;4.90;1.20;;;;;;;17.31;50.50;97983.35;107017;1278;22605;-85
2022/06/21 10:51:26;;;;;;;2.20;0.90;;;;;;;17.44;49.56;97982.69;107394;1280;22580;-90
2022/06/21 10:54:00;;;;;;;2.20;1.00;;;;;;;17.64;49.61;97983.88;107369;1277;23593;-91
2022/06/21 11:02:49;;;;;;;1.40;1.10;;;;;;;17.80;49.87;97980.23;107313;1277;136430;-90
2022/06/21 11:05:34;;;;;;;4.50;1.80;;;;;;;17.74;49.80;97986.67;107655;1277;23325;-91
2022/06/21 11:08:20;;;;;;;1.90;1.60;;;;;;;17.66;50.02;97987.98;107403;1277;137496;-90
2022/06/21 11:11:31;;;;;;;3.10;1.10;;;;;;;17.57;49.52;97996.52;107541;1280;22992;-91
2022/06/21 11:14:15;;;;;;;3.00;1.10;;;;;;;17.47;50.36;97991.84;107170;1277;136833;-91
2022/06/21 11:17:01;;;;;;;2.20;1.00;;;;;;;17.59;50.63;97996.64;107358;1276;23492;-93
2022/06/21 11:19:57;;;;;;;4.00;0.90;;;;;;;17.64;50.29;97990.32;107562;1276;137966;-88
2022/06/21 11:22:46;;;;;;;3.60;1.00;;;;;;;17.62;49.80;97993.44;107502;1277;23394;-90
2022/06/21 11:25:38;;;;;;;1.50;1.10;;;;;;;17.74;49.68;97994.48;107130;1279;137095;-90
2022/06/21 11:28:42;;;;;;;0.80;0.80;;;;;;;17.85;49.57;97997.30;107600;1277;25940;-88
2022/06/21 11:31:36;;;;;;;5.30;0.80;;;;;;;17.67;49.25;98000.40;107475;1280;137104;-88
2022/06/21 11:34:26;;;;;;;2.60;1.20;;;;;;;17.48;49.37;97998.09;107527;1277;22700;-90
2022/06/21 11:37:19;;;;;;;2.10;0.90;;;;;;;17.29;49.90;98004.20;107472;1277;22513;-88
2022/06/21 11:40:20;;;;;;;4.10;1.20;;;;;;;17.14;50.55;98006.14;107746;1277;22587;-92
2022/06/21 11:42:57;;;;;;;6.60;1.50;;;;;;;17.07;51.50;97998.65;107787;1277;22579;-86
2022/06/21 11:45:36;;;;;;;1.70;1.20;;;;;;;17.20;52.32;98002.58;107478;1277;22561;-91
2022/06/21 11:48:21;;;;;;;1.90;1.00;;;;;;;17.56;52.30;98004.23;107454;1277;22484;-89
2022/06/21 11:51:17;;;;;;;1.50;1.20;;;;;;;17.82;51.08;98008.62;107739;1276;137167;-91
2022/06/21 11:54:05;;;;;;;2.30;1.10;;;;;;;17.78;50.75;98007.69;107050;1276;24420;-86
2022/06/21 11:56:50;;;;;;;4.00;1.40;;;;;;;17.71;50.37;98011.30;107078;1276;136993;-89
2022/06/21 11:59:41;;;;;;;1.40;1.00;;;;;;;17.64;51.52;98013.23;107275;1278;31836;-91
2022/06/21 12:02:31;;;;;;;2.60;1.00;;;;;;;17.57;52.30;98021.23;106977;1277;136856;-91
2022/06/21 12:05:23;;;;;;;2.40;1.30;;;;;;;17.57;52.64;98016.70;107316;1277;22700;-92
2022/06/21 12:07:58;;;;;;;1.50;1.30;;;;;;;17.48;52.41;98016.33;107013;1277;137300;-93
2022/06/21 12:10:49;;;;;;;2.00;1.20;;;;;;;17.38;52.76;98015.82;106964;1277;25191;-90
2022/06/21 12:13:56;;;;;;;2.50;1.70;;;;;;;17.26;54.62;98011.67;106893;1277;137565;-90
2022/06/21 12:17:03;;;;;;;2.10;1.00;;;;;;;17.20;55.32;98016.93;106894;1277;23954;-94
2022/06/21 12:19:39;;;;;;;2.90;1.50;;;;;;;17.14;55.09;98011.73;107064;1277;138012;-92
2022/06/21 12:22:44;;;;;;;2.80;1.60;;;;;;;17.13;55.63;98011.98;107353;1277;25591;-87
2022/06/21 12:25:18;;;;;;;1.90;1.00;;;;;;;17.20;54.44;98007.46;106525;1280;137145;-90
2022/06/21 12:27:47;;;;;;;2.00;1.10;;;;;;;17.24;53.97;98017.36;106677;1280;25495;-91
2022/06/21 12:30:21;;;;;;;2.80;1.20;;;;;;;17.19;53.41;98016.41;106700;1281;22536;-86
2022/06/21 12:32:57;;;;;;;1.60;1.00;;;;;;;17.17;53.49;98012.74;106769;1281;137225;-88
2022/06/21 12:35:45;;;;;;;5.40;1.10;;;;;;;17.21;53.28;98009.86;106677;1280;25316;-92
2022/06/21 12:38:18;;;;;;;;;;;;;;;17.30;53.19;98008.08;106413;1280;137366;-90
2022/06/21 12:41:15;;;;;;;2.30;1.40;;;;;;;17.53;53.23;98003.39;107038;1280;25694;-86
2022/06/21 12:43:45;;;;;;;2.90;1.40;;;;;;;17.87;53.18;98006.11;106618;1280;137424;-90
2022/06/21 12:46:30;;;;;;;1.50;1.10;;;;;;;18.08;52.51;98004.17;106568;1280;22707;-89
2022/06/21 12:49:06;;;;;;;2.90;1.50;;;;;;;18.18;51.17;98000.67;107215;1280;22590;-92